Time;durP1;ratioP1;P1;durP2;ratioP2;P2;SDS_P1;SDS_P2;PMS_P1;PMS_P2;Temp;Humidity;BMP_temperature;BMP_pressure;BME280_temperature;BME280_humidity;BME280_pressure;Samples;Min_cycle;Max_cycle;Signal;HPM_P1;HPM_P2
2021/05/07 00:01:21;;;;;;;1.20;1.13;;;;;;;8.42;100.00;97297.25;5097115;28;20234;-59
2021/05/07 00:03:47;;;;;;;1.40;1.30;;;;;;;8.47;100.00;97281.97;5096930;28;20212;-61
2021/05/07 00:06:13;;;;;;;1.40;1.30;;;;;;;8.43;100.00;97291.03;5097105;28;20240;-61
2021/05/07 00:08:41;;;;;;;1.07;1.00;;;;;;;8.41;100.00;97283.28;5096888;28;20238;-59
2021/05/07 00:11:10;;;;;;;1.27;1.17;;;;;;;8.37;100.00;97288.84;5096563;28;20263;-60
2021/05/07 00:13:37;;;;;;;1.30;1.20;;;;;;;8.36;100.00;97289.81;5096893;28;20573;-61
2021/05/07 00:16:04;;;;;;;1.40;1.30;;;;;;;8.38;100.00;97293.19;5096881;28;20617;-61
2021/05/07 00:18:30;;;;;;;1.00;1.00;;;;;;;8.43;100.00;97294.53;5096668;28;20207;-61
2021/05/07 00:20:57;;;;;;;0.90;0.90;;;;;;;8.36;100.00;97289.81;5096760;28;20587;-62
2021/05/07 00:23:23;;;;;;;1.00;1.00;;;;;;;8.32;100.00;97297.09;5096635;28;20207;-62
2021/05/07 00:25:51;;;;;;;0.90;0.90;;;;;;;8.36;100.00;97310.88;5095034;28;20207;-60
2021/05/07 00:28:19;;;;;;;0.90;0.90;;;;;;;8.38;100.00;97315.06;5096398;28;20238;-61
2021/05/07 00:30:45;;;;;;;0.80;0.80;;;;;;;8.29;100.00;97304.38;5096171;28;20218;-61
2021/05/07 00:33:11;;;;;;;1.13;0.70;;;;;;;8.24;100.00;97306.50;5096183;28;20578;-58
2021/05/07 00:35:37;;;;;;;1.07;0.90;;;;;;;8.22;100.00;97305.78;5096377;28;20240;-59
2021/05/07 00:38:04;;;;;;;1.07;1.00;;;;;;;8.21;100.00;97306.75;5096327;28;20210;-61
2021/05/07 00:40:31;;;;;;;0.90;0.90;;;;;;;8.20;100.00;97307.69;5096097;28;20206;-64
2021/05/07 00:42:57;;;;;;;0.83;0.83;;;;;;;8.23;100.00;97305.69;5096266;28;20573;-61
2021/05/07 00:45:25;;;;;;;1.33;1.00;;;;;;;8.24;100.00;97306.50;5096282;28;20306;-61
2021/05/07 00:47:56;;;;;;;1.00;0.80;;;;;;;8.30;100.00;97306.06;5095851;28;20224;-61
2021/05/07 00:50:24;;;;;;;0.90;0.90;;;;;;;8.24;100.00;97310.00;5096145;28;20215;-61
2021/05/07 00:52:50;;;;;;;0.80;0.80;;;;;;;8.20;100.00;97316.41;5094193;28;20225;-62
2021/05/07 00:55:16;;;;;;;1.07;1.07;;;;;;;8.17;100.00;97310.50;5096030;28;20215;-61
2021/05/07 00:57:42;;;;;;;1.27;1.20;;;;;;;8.16;100.00;97304.41;5095939;28;20706;-61
2021/05/07 01:00:10;;;;;;;1.30;1.20;;;;;;;8.15;100.00;97307.16;5094605;28;20264;-60
2021/05/07 01:02:37;;;;;;;1.03;1.03;;;;;;;8.10;100.00;97306.63;5096217;28;20231;-60
2021/05/07 01:05:04;;;;;;;1.10;1.00;;;;;;;8.14;100.00;97310.75;5095925;28;20207;-59
2021/05/07 01:07:30;;;;;;;0.90;0.90;;;;;;;8.10;100.00;97319.78;5095696;28;20213;-62
2021/05/07 01:09:57;;;;;;;1.20;1.10;;;;;;;8.14;100.00;97313.38;5095372;28;20212;-60
2021/05/07 01:12:23;;;;;;;1.30;1.00;;;;;;;8.06;100.00;97318.31;5096962;28;20222;-61
2021/05/07 01:15:04;;;;;;;1.27;1.00;;;;;;;7.91;100.00;97324.69;5098171;28;20534;-60
2021/05/07 01:17:30;;;;;;;1.00;1.00;;;;;;;7.83;100.00;97332.31;5096418;28;20218;-59
2021/05/07 01:20:08;;;;;;;1.70;1.20;;;;;;;7.72;100.00;97327.78;5097114;28;20236;-59
2021/05/07 01:22:34;;;;;;;1.03;1.00;;;;;;;7.69;100.00;97327.16;5095865;28;20214;-60
2021/05/07 01:25:00;;;;;;;1.70;1.10;;;;;;;7.68;100.00;97334.22;5095315;28;20637;-61
2021/05/07 01:27:26;;;;;;;1.30;1.20;;;;;;;7.61;100.00;97342.66;5095385;28;20260;-60
2021/05/07 01:29:52;;;;;;;1.40;1.30;;;;;;;7.52;100.00;97328.34;5095093;28;20241;-60
2021/05/07 01:32:18;;;;;;;1.40;1.30;;;;;;;7.45;100.00;97336.75;5094963;28;20205;-60
2021/05/07 01:34:44;;;;;;;2.00;1.20;;;;;;;7.41;100.00;97340.56;5095259;28;20210;-60
2021/05/07 01:37:11;;;;;;;1.40;1.30;;;;;;;7.39;100.00;97342.44;5095378;28;20216;-59
2021/05/07 01:39:37;;;;;;;1.77;1.40;;;;;;;7.36;100.00;97342.66;5094883;28;20737;-60
2021/05/07 01:42:03;;;;;;;1.83;1.23;;;;;;;7.27;100.00;97335.41;5094950;28;20208;-63
2021/05/07 01:44:30;;;;;;;1.33;1.23;;;;;;;7.21;100.00;97338.44;5093440;28;20211;-60
2021/05/07 01:46:56;;;;;;;1.50;1.20;;;;;;;7.18;100.00;97338.66;5095185;28;20609;-59
2021/05/07 01:49:21;;;;;;;1.33;1.23;;;;;;;7.17;100.00;97342.25;5095083;28;20226;-59
2021/05/07 01:51:47;;;;;;;1.70;1.10;;;;;;;7.16;100.00;97353.72;5094993;28;20675;-61
2021/05/07 01:54:14;;;;;;;1.27;1.17;;;;;;;7.08;100.00;97342.84;5095018;28;20280;-61
2021/05/07 01:56:40;;;;;;;1.87;1.37;;;;;;;7.06;100.00;97344.75;5094588;28;20672;-58
2021/05/07 01:59:06;;;;;;;1.80;1.13;;;;;;;7.02;100.00;97353.78;5094990;28;20223;-60
2021/05/07 02:01:32;;;;;;;1.23;1.13;;;;;;;7.01;100.00;97349.47;5094606;28;20710;-59
2021/05/07 02:03:58;;;;;;;1.53;1.23;;;;;;;7.03;100.00;97344.13;5094372;28;20242;-59
2021/05/07 02:06:24;;;;;;;1.30;1.20;;;;;;;7.08;100.00;97344.66;5094666;28;20214;-60
2021/05/07 02:08:50;;;;;;;1.40;1.30;;;;;;;7.11;100.00;97331.28;5094699;28;20841;-61
2021/05/07 02:11:17;;;;;;;1.30;1.20;;;;;;;7.06;100.00;97343.91;5092524;28;20661;-61
2021/05/07 02:13:43;;;;;;;1.50;1.40;;;;;;;6.93;100.00;97338.66;5094531;28;20215;-60
2021/05/07 02:16:11;;;;;;;1.53;1.20;;;;;;;6.82;100.00;97345.53;5094564;28;20219;-61
2021/05/07 02:18:37;;;;;;;1.37;1.27;;;;;;;6.65;100.00;97348.47;5094276;28;20222;-60
2021/05/07 02:21:03;;;;;;;1.60;1.50;;;;;;;6.64;100.00;97345.00;5094420;28;20250;-59
2021/05/07 02:23:29;;;;;;;1.50;1.40;;;;;;;6.70;100.00;97347.22;5094294;28;20210;-61
2021/05/07 02:25:55;;;;;;;2.23;1.60;;;;;;;6.70;100.00;97347.22;5094264;28;20265;-61
2021/05/07 02:28:22;;;;;;;1.40;1.30;;;;;;;6.80;100.00;97342.19;5094128;28;20253;-62
2021/05/07 02:30:48;;;;;;;1.67;1.57;;;;;;;6.80;100.00;97343.03;5094125;28;20586;-59
2021/05/07 02:33:14;;;;;;;1.40;1.30;;;;;;;6.86;100.00;97350.50;5093883;28;20214;-58
2021/05/07 02:35:40;;;;;;;1.50;1.40;;;;;;;6.88;100.00;97350.38;5092061;28;20211;-60
2021/05/07 02:38:06;;;;;;;1.70;1.60;;;;;;;6.84;100.00;97344.50;5094137;28;20310;-60
2021/05/07 02:40:32;;;;;;;2.00;1.47;;;;;;;6.88;100.00;97346.00;5093985;28;20602;-62
2021/05/07 02:42:58;;;;;;;1.50;1.40;;;;;;;6.91;100.00;97340.50;5093679;28;20216;-62
2021/05/07 02:45:25;;;;;;;2.30;1.60;;;;;;;6.92;100.00;97344.84;5093595;28;20340;-63
2021/05/07 02:47:51;;;;;;;2.00;1.80;;;;;;;6.91;100.00;97345.78;5093569;28;20223;-62
2021/05/07 02:50:17;;;;;;;1.93;1.57;;;;;;;6.95;100.00;97347.25;5093851;28;20482;-62
2021/05/07 02:52:44;;;;;;;2.23;1.80;;;;;;;7.00;100.00;97355.69;5093778;28;20203;-62
2021/05/07 02:55:11;;;;;;;1.93;1.77;;;;;;;7.10;100.00;97361.16;5093749;28;20360;-62
2021/05/07 02:57:38;;;;;;;1.73;1.63;;;;;;;7.12;100.00;97365.34;5093721;28;20206;-62
2021/05/07 03:00:05;;;;;;;1.90;1.77;;;;;;;7.20;100.00;97368.28;5093545;28;20213;-62
2021/05/07 03:02:32;;;;;;;2.00;1.80;;;;;;;7.23;100.00;97366.31;5092106;28;20233;-62
2021/05/07 03:04:58;;;;;;;1.63;1.53;;;;;;;7.23;100.00;97362.84;5093272;28;20210;-61
2021/05/07 03:07:24;;;;;;;2.20;1.77;;;;;;;7.28;100.00;97365.16;5093652;28;20246;-62
2021/05/07 03:09:51;;;;;;;1.93;1.77;;;;;;;7.26;100.00;97373.13;5093638;28;20550;-62
2021/05/07 03:12:17;;;;;;;1.63;1.53;;;;;;;7.28;100.00;97374.72;5093586;28;20206;-61
2021/05/07 03:14:44;;;;;;;1.57;1.47;;;;;;;7.28;100.00;97369.47;5093589;28;20221;-60
2021/05/07 03:17:09;;;;;;;1.87;1.73;;;;;;;7.30;100.00;97372.81;5093451;28;20230;-63
2021/05/07 03:19:36;;;;;;;1.67;1.57;;;;;;;7.28;100.00;97376.53;5093269;28;20211;-61
2021/05/07 03:22:02;;;;;;;1.70;1.60;;;;;;;7.29;100.00;97372.94;5092515;28;20217;-60
2021/05/07 03:24:28;;;;;;;1.90;1.63;;;;;;;7.28;100.00;97384.41;5093269;28;20211;-61
2021/05/07 03:26:54;;;;;;;2.53;1.60;;;;;;;7.23;100.00;97383.88;5093396;28;20217;-61
2021/05/07 03:29:20;;;;;;;2.17;1.97;;;;;;;7.14;100.00;97399.41;5091606;28;20233;-61
2021/05/07 03:31:46;;;;;;;3.23;2.17;;;;;;;7.05;100.00;97395.63;5093194;28;20271;-59
2021/05/07 03:34:12;;;;;;;2.27;2.07;;;;;;;7.04;100.00;97388.69;5092932;28;20251;-61
2021/05/07 03:36:39;;;;;;;2.10;1.90;;;;;;;7.04;100.00;97399.19;5092862;28;20252;-59
2021/05/07 03:39:06;;;;;;;2.47;2.27;;;;;;;6.99;100.00;97401.28;5093210;28;20207;-60
2021/05/07 03:41:31;;;;;;;2.10;1.90;;;;;;;6.98;100.00;97404.84;5092806;28;20700;-62
2021/05/07 03:43:57;;;;;;;2.60;2.40;;;;;;;6.99;100.00;97408.31;5092847;28;20215;-61
2021/05/07 03:46:23;;;;;;;2.73;2.37;;;;;;;6.99;100.00;97409.16;5092814;28;20715;-61
2021/05/07 03:48:49;;;;;;;2.90;2.37;;;;;;;6.96;100.00;97411.97;5092681;28;20230;-61
2021/05/07 03:51:16;;;;;;;2.70;2.50;;;;;;;6.96;100.00;97408.53;5093158;28;20248;-61
2021/05/07 03:53:42;;;;;;;3.83;2.53;;;;;;;6.95;100.00;97415.56;5091052;28;20206;-60
2021/05/07 03:56:08;;;;;;;2.70;2.50;;;;;;;6.93;100.00;97422.69;5093036;28;20214;-61
2021/05/07 03:58:34;;;;;;;4.17;2.80;;;;;;;6.88;100.00;97435.28;5093015;28;20319;-61
2021/05/07 04:01:01;;;;;;;3.10;2.80;;;;;;;6.86;100.00;97439.81;5092991;28;20248;-60
2021/05/07 04:03:27;;;;;;;2.70;2.50;;;;;;;6.84;100.00;97444.31;5092867;28;20215;-61
2021/05/07 04:05:55;;;;;;;3.10;2.80;;;;;;;6.89;100.00;97442.22;5092849;28;20672;-63
2021/05/07 04:08:23;;;;;;;3.10;2.80;;;;;;;6.94;100.00;97440.13;5092995;28;20277;-62
2021/05/07 04:10:53;;;;;;;3.37;3.07;;;;;;;6.94;100.00;97450.66;5093070;28;20573;-62
2021/05/07 04:13:39;;;;;;;3.50;3.20;;;;;;;6.96;100.00;97456.63;5092870;28;20217;-61
2021/05/07 04:16:05;;;;;;;3.73;3.30;;;;;;;6.94;100.00;97466.41;5092865;28;20213;-62
2021/05/07 04:18:31;;;;;;;3.53;3.20;;;;;;;6.95;100.00;97467.25;5092876;28;20547;-62
2021/05/07 04:20:57;;;;;;;3.43;3.13;;;;;;;6.93;100.00;97464.72;5091143;28;20318;-61
2021/05/07 04:23:23;;;;;;;4.80;3.80;;;;;;;6.91;100.00;97466.59;5092427;28;20224;-61
2021/05/07 04:25:50;;;;;;;3.73;3.40;;;;;;;6.91;100.00;97463.97;5092821;28;20242;-61
2021/05/07 04:28:16;;;;;;;4.80;3.93;;;;;;;6.91;100.00;97477.09;5092358;28;20230;-60
2021/05/07 04:30:42;;;;;;;4.10;3.53;;;;;;;6.91;100.00;97479.72;5092701;28;20233;-61
2021/05/07 04:33:09;;;;;;;4.10;3.70;;;;;;;6.87;100.00;97480.88;5092819;28;20649;-61
2021/05/07 04:35:35;;;;;;;4.83;4.30;;;;;;;6.89;100.00;97484.25;5096332;28;20213;-61
2021/05/07 04:38:01;;;;;;;5.57;4.97;;;;;;;6.94;100.00;97492.69;5096505;28;20212;-60
2021/05/07 04:40:27;;;;;;;4.53;4.00;;;;;;;6.77;100.00;97487.66;5095998;28;20203;-60
2021/05/07 04:42:54;;;;;;;5.33;4.80;;;;;;;6.66;100.00;97486.69;5096335;28;20324;-60
2021/05/07 04:45:20;;;;;;;5.30;4.73;;;;;;;6.60;100.00;97500.19;5096050;28;20206;-63
2021/05/07 04:47:46;;;;;;;6.80;4.27;;;;;;;6.54;100.00;97504.03;5094710;28;20234;-59
2021/05/07 04:50:14;;;;;;;4.07;3.73;;;;;;;6.45;100.00;97504.63;5096201;28;20206;-60
2021/05/07 04:52:40;;;;;;;4.77;3.53;;;;;;;6.35;100.00;97508.75;5095772;28;20211;-58
2021/05/07 04:55:07;;;;;;;5.93;3.63;;;;;;;6.33;100.00;97508.00;5095731;28;20233;-59
2021/05/07 04:57:33;;;;;;;3.43;3.13;;;;;;;6.26;100.00;97514.59;5096014;28;20271;-59
2021/05/07 05:00:00;;;;;;;4.00;3.53;;;;;;;6.22;100.00;97523.56;5095989;28;20264;-58
2021/05/07 05:02:29;;;;;;;3.33;3.03;;;;;;;6.25;100.00;97528.66;5095688;28;20239;-59
2021/05/07 05:04:55;;;;;;;4.00;3.10;;;;;;;6.25;100.00;97533.91;5095917;28;20211;-57
2021/05/07 05:07:20;;;;;;;3.47;3.03;;;;;;;6.29;100.00;97539.78;5095942;28;20209;-58
2021/05/07 05:09:46;;;;;;;4.73;3.27;;;;;;;6.29;100.00;97535.38;5095770;28;20233;-54
2021/05/07 05:12:12;;;;;;;3.80;3.20;;;;;;;6.25;100.00;97533.91;5094052;28;20260;-59
2021/05/07 05:14:38;;;;;;;3.97;3.20;;;;;;;6.31;100.00;97536.13;5095370;28;20210;-59
2021/05/07 05:17:05;;;;;;;5.27;3.27;;;;;;;6.25;100.00;97539.13;5095368;28;20213;-57
2021/05/07 05:19:31;;;;;;;5.70;3.63;;;;;;;6.25;100.00;97544.38;5095688;28;20213;-58
2021/05/07 05:21:57;;;;;;;4.20;3.73;;;;;;;6.29;100.00;97551.13;5095567;28;20203;-60
2021/05/07 05:24:24;;;;;;;4.17;3.57;;;;;;;6.35;100.00;97548.13;5094231;28;20219;-62
2021/05/07 05:26:50;;;;;;;6.90;4.07;;;;;;;6.40;100.00;97532.94;5094858;28;20600;-58
2021/05/07 05:29:16;;;;;;;5.60;3.80;;;;;;;6.41;100.00;97550.34;5094748;28;20262;-58
2021/05/07 05:31:42;;;;;;;4.40;3.90;;;;;;;6.48;100.00;97551.66;5094765;28;20240;-60
2021/05/07 05:34:09;;;;;;;4.67;4.07;;;;;;;6.56;100.00;97552.06;5094761;28;20235;-59
2021/05/07 05:36:35;;;;;;;5.03;3.97;;;;;;;6.58;100.00;97563.28;5094446;28;20215;-59
2021/05/07 05:39:01;;;;;;;5.50;4.00;;;;;;;6.60;100.00;97566.66;5092952;28;20207;-60
2021/05/07 05:41:27;;;;;;;5.43;4.10;;;;;;;6.62;100.00;97569.19;5094336;28;20207;-61
2021/05/07 05:43:53;;;;;;;4.43;3.80;;;;;;;6.67;100.00;97577.63;5094269;28;20255;-61
2021/05/07 05:46:19;;;;;;;4.93;4.23;;;;;;;6.73;100.00;97572.81;5093543;28;20273;-60
2021/05/07 05:48:45;;;;;;;5.40;4.07;;;;;;;6.77;100.00;97576.94;5094386;28;20227;-61
2021/05/07 05:51:12;;;;;;;4.93;4.37;;;;;;;6.77;100.00;97584.00;5094493;28;20206;-58
2021/05/07 05:53:38;;;;;;;4.60;4.07;;;;;;;6.75;100.00;97584.09;5094070;28;20207;-60
2021/05/07 05:56:04;;;;;;;4.87;4.13;;;;;;;6.76;100.00;97588.41;5093998;28;20211;-59
2021/05/07 05:58:31;;;;;;;4.53;4.07;;;;;;;6.77;100.00;97590.09;5094264;28;20215;-60
2021/05/07 06:00:58;;;;;;;6.57;4.87;;;;;;;6.77;100.00;97587.44;5094108;28;20215;-59
2021/05/07 06:03:24;;;;;;;5.50;4.67;;;;;;;6.76;100.00;97588.41;5094194;28;20575;-61
2021/05/07 06:05:50;;;;;;;7.27;4.77;;;;;;;6.67;100.00;97591.63;5092328;28;20212;-60
2021/05/07 06:08:17;;;;;;;6.37;5.07;;;;;;;6.74;100.00;97590.28;5094102;28;20266;-60
2021/05/07 06:10:43;;;;;;;5.50;5.00;;;;;;;6.75;100.00;97597.22;5093863;28;20214;-59
2021/05/07 06:13:09;;;;;;;7.37;4.70;;;;;;;6.71;100.00;97608.84;5094056;28;20214;-61
2021/05/07 06:15:35;;;;;;;5.97;4.70;;;;;;;6.63;100.00;97612.88;5094001;28;20253;-61
2021/05/07 06:18:01;;;;;;;6.50;5.10;;;;;;;6.56;100.00;97615.06;5093551;28;20207;-62
2021/05/07 06:20:27;;;;;;;7.40;5.07;;;;;;;6.59;100.00;97606.97;5093546;28;20211;-62
2021/05/07 06:22:53;;;;;;;6.47;5.47;;;;;;;6.65;100.00;97613.66;5093495;28;20698;-60
2021/05/07 06:25:24;;;;;;;8.63;5.77;;;;;;;6.65;100.00;97616.28;5093786;28;20204;-61
2021/05/07 06:27:50;;;;;;;6.17;5.57;;;;;;;6.65;100.00;97622.34;5093710;28;20214;-61
2021/05/07 06:30:16;;;;;;;7.10;5.50;;;;;;;6.63;100.00;97629.50;5093698;28;20653;-61
2021/05/07 06:32:42;;;;;;;7.17;5.67;;;;;;;6.69;100.00;97629.13;5092231;28;20206;-59
2021/05/07 06:35:10;;;;;;;5.67;5.13;;;;;;;6.79;100.00;97617.09;5093279;28;20703;-60
2021/05/07 06:37:36;;;;;;;5.77;5.17;;;;;;;6.77;100.00;97618.97;5093587;28;20211;-62
2021/05/07 06:40:05;;;;;;;8.03;6.60;;;;;;;6.73;100.00;97625.34;5093467;28;20207;-61
2021/05/07 06:42:34;;;;;;;6.33;5.67;;;;;;;6.88;100.00;97636.69;5093505;28;20222;-61
2021/05/07 06:45:00;;;;;;;6.57;5.47;;;;;;;6.93;100.00;97643.34;5093466;28;20289;-60
2021/05/07 06:47:26;;;;;;;7.33;6.03;;;;;;;6.94;100.00;97645.03;5091561;28;20218;-61
2021/05/07 06:49:52;;;;;;;7.93;6.20;;;;;;;6.84;100.00;97649.16;5090900;28;20231;-61
2021/05/07 06:52:19;;;;;;;6.93;5.43;;;;;;;6.92;100.00;97657.44;5091939;28;20255;-61
2021/05/07 06:54:45;;;;;;;6.73;5.50;;;;;;;6.87;100.00;97651.63;5092337;28;20248;-61
2021/05/07 06:57:11;;;;;;;6.70;5.30;;;;;;;6.92;100.00;97648.69;5087658;28;20214;-64
2021/05/07 06:59:38;;;;;;;8.93;6.13;;;;;;;6.99;100.00;97653.47;5069863;28;20704;-61
2021/05/07 07:02:04;;;;;;;6.80;5.70;;;;;;;6.98;100.00;97664.94;5071965;28;20250;-63
2021/05/07 07:04:30;;;;;;;7.10;5.60;;;;;;;6.95;100.00;97657.22;5071313;28;20211;-62
2021/05/07 07:06:57;;;;;;;7.90;6.43;;;;;;;7.05;100.00;97663.59;5071791;28;20622;-63
2021/05/07 07:09:23;;;;;;;6.37;5.77;;;;;;;7.16;100.00;97666.41;5071335;28;20243;-61
2021/05/07 07:11:51;;;;;;;7.33;5.50;;;;;;;7.35;100.00;97673.00;5071204;28;20221;-63
2021/05/07 07:14:17;;;;;;;9.13;6.10;;;;;;;7.48;100.00;97675.72;5071994;28;20575;-61
2021/05/07 07:16:44;;;;;;;8.27;6.60;;;;;;;7.54;100.00;97683.22;5071336;28;20681;-63
2021/05/07 07:19:10;;;;;;;10.00;6.23;;;;;;;7.66;100.00;97687.69;5072699;28;20582;-63
2021/05/07 07:21:36;;;;;;;7.00;5.53;;;;;;;7.77;100.00;97690.47;5072683;28;20212;-63
2021/05/07 07:24:02;;;;;;;6.90;6.10;;;;;;;7.95;100.00;97684.00;5070899;28;20579;-63
2021/05/07 07:26:28;;;;;;;6.63;5.60;;;;;;;8.08;100.00;97700.66;5072573;28;20207;-64
2021/05/07 07:28:56;;;;;;;7.13;5.80;;;;;;;8.20;100.00;97699.91;5072549;28;20266;-64
2021/05/07 07:31:22;;;;;;;7.80;5.73;;;;;;;8.39;100.00;97705.59;5072631;28;20212;-62
2021/05/07 07:33:49;;;;;;;6.17;5.53;;;;;;;8.38;100.00;97709.19;5072634;28;20208;-62
2021/05/07 07:36:15;;;;;;;5.80;5.20;;;;;;;8.26;100.00;97716.09;5072392;28;20211;-62
2021/05/07 07:38:41;;;;;;;8.97;5.73;;;;;;;8.15;100.00;97715.09;5072609;28;20260;-62
2021/05/07 07:41:07;;;;;;;7.57;5.87;;;;;;;8.07;100.00;97715.59;5072185;28;20261;-63
2021/05/07 07:43:33;;;;;;;6.23;5.33;;;;;;;8.16;100.00;97719.41;5072499;28;20215;-63
2021/05/07 07:45:59;;;;;;;6.87;5.43;;;;;;;8.21;99.05;97723.47;5072439;28;20218;-63
2021/05/07 07:48:25;;;;;;;6.63;5.30;;;;;;;8.17;97.93;97729.00;5081821;28;20233;-63
2021/05/07 07:50:52;;;;;;;8.10;5.60;;;;;;;8.16;94.57;97728.19;5090874;28;20210;-63
2021/05/07 07:53:18;;;;;;;7.13;5.23;;;;;;;8.24;93.31;97738.22;5092630;28;20210;-62
2021/05/07 07:55:44;;;;;;;6.00;5.40;;;;;;;8.26;94.03;97741.59;5092636;28;20298;-64
2021/05/07 07:58:10;;;;;;;6.63;5.03;;;;;;;8.15;93.95;97744.06;5092483;28;20211;-63
2021/05/07 08:00:36;;;;;;;6.60;5.70;;;;;;;8.08;93.33;97740.97;5092609;28;20579;-64
2021/05/07 08:03:02;;;;;;;6.33;5.40;;;;;;;8.15;94.86;97750.16;5092756;28;20230;-63
2021/05/07 08:05:29;;;;;;;6.10;5.33;;;;;;;8.33;94.23;97750.78;5092459;28;20214;-62
2021/05/07 08:07:58;;;;;;;8.20;5.70;;;;;;;8.33;93.09;97745.50;5092344;28;20218;-63
2021/05/07 08:10:24;;;;;;;6.73;5.00;;;;;;;8.38;93.75;97754.78;5096320;28;20210;-62
2021/05/07 08:12:50;;;;;;;6.03;5.40;;;;;;;8.67;95.22;97758.94;5096376;28;20621;-63
2021/05/07 08:15:16;;;;;;;5.57;4.97;;;;;;;9.03;88.76;97758.22;5096300;28;20256;-63
2021/05/07 08:17:42;;;;;;;5.87;4.70;;;;;;;9.16;86.79;97756.44;5094608;28;20218;-62
2021/05/07 08:20:10;;;;;;;7.77;5.57;;;;;;;9.51;89.29;97765.34;5096037;28;20677;-62
2021/05/07 08:22:36;;;;;;;7.40;5.90;;;;;;;9.74;88.63;97775.13;5096153;28;20261;-62
2021/05/07 08:25:03;;;;;;;7.00;5.97;;;;;;;9.81;87.18;97777.22;5096139;28;20210;-62
2021/05/07 08:27:29;;;;;;;7.10;5.10;;;;;;;9.56;81.37;97777.28;5095769;28;20680;-63
2021/05/07 08:29:56;;;;;;;5.70;4.70;;;;;;;9.50;83.02;97787.41;5095643;28;20233;-63
2021/05/07 08:32:22;;;;;;;6.63;5.23;;;;;;;9.53;85.80;97788.03;5095744;28;20215;-64
2021/05/07 08:34:48;;;;;;;6.10;5.50;;;;;;;9.22;85.70;97792.91;5095882;28;20208;-63
2021/05/07 08:37:14;;;;;;;7.33;5.03;;;;;;;9.13;88.20;97790.94;5095970;28;20220;-64
2021/05/07 08:39:41;;;;;;;6.30;5.50;;;;;;;8.91;85.27;97791.56;5096232;28;20237;-62
2021/05/07 08:42:10;;;;;;;5.37;4.87;;;;;;;8.76;84.94;97810.19;5095800;28;20265;-63
2021/05/07 08:44:36;;;;;;;5.23;4.73;;;;;;;8.78;87.77;97814.41;5093788;28;20216;-62
2021/05/07 08:47:02;;;;;;;6.43;5.27;;;;;;;8.89;85.55;97814.53;5095311;28;20208;-63
2021/05/07 08:49:29;;;;;;;5.63;4.97;;;;;;;9.06;85.69;97821.28;5095149;28;20727;-63
2021/05/07 08:51:55;;;;;;;6.20;5.10;;;;;;;9.50;81.84;97827.00;5095549;28;20223;-64
2021/05/07 08:54:22;;;;;;;6.67;4.60;;;;;;;9.83;77.23;97822.81;5096416;28;20233;-63
2021/05/07 08:56:49;;;;;;;5.43;4.63;;;;;;;9.97;74.46;97825.31;5094783;28;20680;-63
2021/05/07 08:59:16;;;;;;;5.93;4.53;;;;;;;9.87;75.58;97839.28;5093814;28;20210;-63
2021/05/07 09:01:44;;;;;;;7.10;4.80;;;;;;;9.76;76.81;97831.28;5094356;28;20256;-63
2021/05/07 09:04:11;;;;;;;6.30;4.93;;;;;;;9.81;79.79;97837.06;5094431;28;20207;-63
2021/05/07 09:06:44;;;;;;;5.10;4.60;;;;;;;10.11;80.97;97840.19;5089802;28;20207;-63
2021/05/07 09:09:19;;;;;;;5.70;5.00;;;;;;;10.66;79.85;97840.50;5092843;28;20233;-62
2021/05/07 09:11:45;;;;;;;6.27;4.77;;;;;;;11.04;76.47;97843.75;5092890;28;20216;-63
2021/05/07 09:14:11;;;;;;;5.90;4.57;;;;;;;11.24;72.77;97846.59;5093427;28;20555;-62
2021/05/07 09:16:49;;;;;;;5.30;4.80;;;;;;;11.22;70.72;97853.81;5094000;28;20250;-63
2021/05/07 09:19:19;;;;;;;5.87;5.20;;;;;;;10.67;74.68;97858.03;5094351;28;20213;-63
2021/05/07 09:21:44;;;;;;;5.43;4.83;;;;;;;10.67;72.22;97848.31;5093071;28;20288;-63
2021/05/07 09:24:11;;;;;;;5.63;4.20;;;;;;;10.88;72.48;97859.94;5094439;28;20252;-62
2021/05/07 09:26:47;;;;;;;4.97;4.23;;;;;;;11.22;71.81;97868.81;5094790;28;20214;-63
2021/05/07 09:29:21;;;;;;;5.07;4.23;;;;;;;11.57;71.89;97859.84;5094747;28;20592;-62
2021/05/07 09:31:50;;;;;;;5.67;4.13;;;;;;;11.85;66.28;97861.22;5094796;28;20214;-62
2021/05/07 09:34:17;;;;;;;4.33;3.93;;;;;;;12.03;68.73;97865.09;5094501;28;20216;-63
2021/05/07 09:36:43;;;;;;;5.10;4.20;;;;;;;11.87;68.17;97869.91;5094463;28;20222;-63
2021/05/07 09:39:14;;;;;;;4.57;3.63;;;;;;;11.78;68.49;97873.28;5092866;28;20214;-63
2021/05/07 09:41:42;;;;;;;4.90;4.07;;;;;;;11.73;68.23;97872.81;5094329;28;20672;-63
2021/05/07 09:44:16;;;;;;;4.80;3.70;;;;;;;11.57;65.09;97877.56;5094522;28;20210;-63
2021/05/07 09:46:42;;;;;;;4.20;3.20;;;;;;;11.48;68.57;97878.25;5094204;28;20291;-63
2021/05/07 09:49:09;;;;;;;4.80;3.83;;;;;;;11.35;62.49;97878.38;5094304;28;20227;-63
2021/05/07 09:51:41;;;;;;;4.67;4.10;;;;;;;10.97;60.45;97884.84;5094450;28;20207;-62
2021/05/07 09:54:08;;;;;;;5.13;3.57;;;;;;;11.14;63.53;97897.66;5094250;28;20215;-62
2021/05/07 09:56:34;;;;;;;6.17;3.50;;;;;;;11.54;65.46;97888.38;5094403;28;20297;-62
2021/05/07 09:59:01;;;;;;;4.03;3.10;;;;;;;11.82;62.79;97898.56;5094112;28;20208;-63
2021/05/07 10:01:27;;;;;;;4.37;3.13;;;;;;;11.57;58.75;97898.75;5094309;28;20329;-62
2021/05/07 10:03:55;;;;;;;4.83;3.10;;;;;;;11.28;56.91;97903.59;5094073;28;20219;-63
2021/05/07 10:06:23;;;;;;;3.20;2.90;;;;;;;11.04;56.36;97902.81;5092500;28;20222;-62
2021/05/07 10:08:49;;;;;;;4.13;3.30;;;;;;;10.85;61.07;97912.19;5093831;28;20332;-63
2021/05/07 10:11:17;;;;;;;3.97;3.40;;;;;;;11.13;61.19;97912.69;5094141;28;20226;-63
2021/05/07 10:13:44;;;;;;;3.40;2.80;;;;;;;11.63;62.32;97906.25;5094069;28;20224;-63
2021/05/07 10:16:11;;;;;;;3.73;2.90;;;;;;;12.20;59.33;97915.78;5093521;28;20211;-63
2021/05/07 10:18:38;;;;;;;5.37;3.07;;;;;;;12.76;58.12;97897.97;5093800;28;20207;-62
2021/05/07 10:21:06;;;;;;;3.47;3.17;;;;;;;12.63;53.14;97918.50;5093833;28;20276;-62
2021/05/07 10:23:34;;;;;;;3.43;2.80;;;;;;;12.83;55.26;97915.09;5093832;28;20210;-62
2021/05/07 10:26:01;;;;;;;4.30;2.97;;;;;;;12.76;51.34;97917.38;5093652;28;20213;-61
2021/05/07 10:28:29;;;;;;;3.67;3.00;;;;;;;12.60;50.50;97934.66;5093511;28;20212;-63
2021/05/07 10:31:05;;;;;;;4.57;3.17;;;;;;;12.34;51.96;97933.25;5093734;28;20218;-63
2021/05/07 10:33:32;;;;;;;3.30;3.00;;;;;;;12.10;53.41;97935.19;5091954;28;20213;-62
2021/05/07 10:35:58;;;;;;;3.20;2.60;;;;;;;12.00;51.78;97944.81;5093184;28;20209;-62
2021/05/07 10:38:25;;;;;;;2.80;2.60;;;;;;;11.84;52.58;97945.16;5093805;28;20208;-62
2021/05/07 10:41:07;;;;;;;3.30;2.87;;;;;;;11.87;53.57;97942.25;5093287;28;20335;-61
2021/05/07 10:43:37;;;;;;;4.37;2.63;;;;;;;11.87;55.33;97950.19;5093469;28;20301;-62
2021/05/07 10:46:03;;;;;;;3.20;2.40;;;;;;;11.82;51.43;97964.75;5093124;28;20218;-62
2021/05/07 10:48:29;;;;;;;4.00;3.00;;;;;;;11.95;53.03;97973.44;5092914;28;20206;-62
2021/05/07 10:50:57;;;;;;;4.47;3.17;;;;;;;12.15;52.46;97975.38;5093079;28;20208;-61
2021/05/07 10:53:28;;;;;;;3.47;3.07;;;;;;;12.31;53.28;97970.59;5092983;28;20222;-61
2021/05/07 10:55:55;;;;;;;3.93;2.93;;;;;;;12.19;52.89;97971.53;5093132;28;20297;-62
2021/05/07 10:58:37;;;;;;;3.43;2.63;;;;;;;12.28;56.19;97962.88;5092135;28;20258;-62
2021/05/07 11:01:16;;;;;;;4.00;3.10;;;;;;;12.30;53.28;97974.19;5093064;28;20582;-62
2021/05/07 11:03:42;;;;;;;2.97;2.67;;;;;;;12.16;51.45;97971.78;5092937;28;20207;-63
2021/05/07 11:06:08;;;;;;;3.23;2.60;;;;;;;11.97;54.23;97977.66;5092892;28;20711;-63
2021/05/07 11:08:34;;;;;;;3.53;2.70;;;;;;;12.14;54.49;97986.94;5093029;28;20232;-63
2021/05/07 11:11:01;;;;;;;3.80;3.00;;;;;;;12.46;53.83;97980.00;5093179;28;20211;-64
2021/05/07 11:13:27;;;;;;;5.13;2.80;;;;;;;12.74;53.34;97972.38;5092885;28;20263;-65
2021/05/07 11:16:01;;;;;;;3.87;2.97;;;;;;;12.99;52.10;97979.19;5092973;28;20572;-62
2021/05/07 11:18:29;;;;;;;3.30;3.00;;;;;;;13.25;50.60;97981.41;5092953;28;20215;-63
2021/05/07 11:20:56;;;;;;;3.77;2.83;;;;;;;13.25;49.39;97975.25;5092798;28;20213;-63
2021/05/07 11:23:29;;;;;;;3.13;2.83;;;;;;;13.31;51.80;97975.59;5092918;28;20213;-63
2021/05/07 11:25:56;;;;;;;3.77;2.70;;;;;;;13.57;54.00;97982.25;5090814;28;20267;-63
2021/05/07 11:28:23;;;;;;;4.23;2.73;;;;;;;13.64;49.24;97977.28;5092724;28;20253;-63
2021/05/07 11:30:50;;;;;;;2.93;2.57;;;;;;;13.71;50.73;97978.44;5092396;28;20210;-61
2021/05/07 11:33:17;;;;;;;4.43;3.07;;;;;;;13.83;50.14;97978.25;5092392;28;20699;-61